createdAt,value
2023-03-25T00:03:54.753Z,14.00
2023-03-25T00:06:23.030Z,14.40
2023-03-25T00:08:52.095Z,14.40
2023-03-25T00:11:20.556Z,14.30
2023-03-25T00:13:49.188Z,13.80
2023-03-25T00:16:26.128Z,14.40
2023-03-25T00:18:54.979Z,13.40
2023-03-25T00:21:23.705Z,13.40
2023-03-25T00:23:51.944Z,14.40
2023-03-25T00:26:21.759Z,14.00
2023-03-25T00:28:50.061Z,14.40
2023-03-25T00:31:19.852Z,13.90
2023-03-25T00:33:50.961Z,14.20
2023-03-25T00:36:23.052Z,13.90
2023-03-25T00:38:51.624Z,14.30
2023-03-25T00:41:27.982Z,13.60
2023-03-25T00:43:58.570Z,14.70
2023-03-25T00:46:28.850Z,14.10
2023-03-25T00:48:57.410Z,15.90
2023-03-25T00:51:34.126Z,14.80
2023-03-25T01:01:39.994Z,15.40
2023-03-25T01:04:12.757Z,14.80
2023-03-25T01:06:44.189Z,15.30
2023-03-25T01:09:16.528Z,15.00
2023-03-25T01:14:18.608Z,13.80
2023-03-25T01:16:50.627Z,15.20
2023-03-25T01:19:19.074Z,16.40
2023-03-25T01:21:48.035Z,15.80
2023-03-25T01:24:20.565Z,14.90
2023-03-25T01:26:49.029Z,16.50
2023-03-25T01:29:19.143Z,15.40
2023-03-25T01:31:47.869Z,15.30
2023-03-25T01:34:17.153Z,16.30
2023-03-25T01:36:46.905Z,16.00
2023-03-25T01:39:18.968Z,16.40
2023-03-25T01:41:50.701Z,15.40
2023-03-25T01:44:19.683Z,16.00
2023-03-25T01:46:54.009Z,16.30
2023-03-25T01:49:44.648Z,15.80
2023-03-25T01:52:16.736Z,15.70
2023-03-25T01:54:45.651Z,15.90
2023-03-25T01:57:19.785Z,15.30
2023-03-25T01:59:52.388Z,16.00
2023-03-25T02:02:21.955Z,17.10
2023-03-25T02:05:01.626Z,15.50
2023-03-25T02:07:32.838Z,15.90
2023-03-25T02:10:26.708Z,16.70
2023-03-25T02:12:55.063Z,16.50
2023-03-25T02:15:28.404Z,16.60
2023-03-25T02:18:13.660Z,15.80
2023-03-25T02:21:08.501Z,16.30
2023-03-25T02:23:42.383Z,16.60
2023-03-25T02:26:36.843Z,18.00
2023-03-25T02:31:49.578Z,16.40
2023-03-25T02:34:35.833Z,17.10
2023-03-25T02:37:27.378Z,17.30
2023-03-25T02:40:07.458Z,16.30
2023-03-25T02:43:14.820Z,16.70
2023-03-25T02:45:50.275Z,16.30
2023-03-25T02:49:19.788Z,17.30
2023-03-25T02:52:17.534Z,17.00
2023-03-25T02:54:46.353Z,17.10
2023-03-25T02:57:16.242Z,17.40
2023-03-25T02:59:46.368Z,17.00
2023-03-25T03:02:14.623Z,16.60
2023-03-25T03:05:01.266Z,17.20
2023-03-25T03:07:36.594Z,17.60
2023-03-25T03:10:18.277Z,16.60
2023-03-25T03:13:19.728Z,17.40
2023-03-25T03:16:19.892Z,16.60
2023-03-25T03:19:09.202Z,18.20
2023-03-25T03:21:46.474Z,17.30
2023-03-25T03:24:39.303Z,17.60
2023-03-25T03:27:38.360Z,17.10
2023-03-25T03:30:06.915Z,17.80
2023-03-25T03:32:48.600Z,17.90
2023-03-25T03:35:25.989Z,16.90
2023-03-25T03:38:03.935Z,17.90
2023-03-25T03:40:32.295Z,18.20
2023-03-25T03:43:33.683Z,17.50
2023-03-25T03:46:07.182Z,18.10
2023-03-25T03:48:49.477Z,18.20
2023-03-25T03:54:05.234Z,18.50
2023-03-25T03:56:41.505Z,17.70
2023-03-25T03:59:27.553Z,18.10
2023-03-25T04:02:00.164Z,17.70
2023-03-25T04:04:28.540Z,16.90
2023-03-25T04:07:10.724Z,17.60
2023-03-25T04:09:54.950Z,17.50
2023-03-25T04:12:27.750Z,17.40
2023-03-25T04:15:01.108Z,17.40
2023-03-25T04:17:35.765Z,15.60
2023-03-25T04:20:09.186Z,16.70
2023-03-25T04:22:38.049Z,15.80
2023-03-25T04:25:12.500Z,15.60
2023-03-25T04:27:40.795Z,15.60
2023-03-25T04:30:09.625Z,15.60
2023-03-25T04:32:38.530Z,15.30
2023-03-25T04:35:10.709Z,15.00
2023-03-25T04:37:39.059Z,14.30
2023-03-25T04:40:09.451Z,14.60
2023-03-25T04:42:39.078Z,14.50
2023-03-25T04:45:07.947Z,14.40
2023-03-25T04:50:23.945Z,13.20
2023-03-25T04:52:53.438Z,13.80
2023-03-25T04:55:49.397Z,12.90
2023-03-25T04:58:18.396Z,12.40
2023-03-25T05:00:50.422Z,13.20
2023-03-25T05:03:24.751Z,12.10
2023-03-25T05:05:56.739Z,13.00
2023-03-25T05:08:27.476Z,12.20
2023-03-25T05:11:45.962Z,11.50
2023-03-25T05:14:44.228Z,11.90
2023-03-25T05:17:12.840Z,10.80
2023-03-25T05:19:44.138Z,10.80
2023-03-25T05:22:13.446Z,10.40
2023-03-25T05:24:45.354Z,10.00
2023-03-25T05:27:23.683Z,10.40
2023-03-25T05:29:52.366Z,10.70
2023-03-25T05:32:21.957Z,10.60
2023-03-25T05:34:57.282Z,9.60
2023-03-25T05:37:25.596Z,9.10
2023-03-25T05:39:56.711Z,8.60
2023-03-25T05:42:27.635Z,9.50
2023-03-25T05:44:58.459Z,9.10
2023-03-25T05:47:29.360Z,9.50
2023-03-25T05:49:57.715Z,8.70
2023-03-25T05:52:27.636Z,8.70
2023-03-25T05:54:56.060Z,9.00
2023-03-25T05:57:26.014Z,8.90
2023-03-25T05:59:55.975Z,8.10
2023-03-25T06:02:25.791Z,8.20
2023-03-25T06:04:54.675Z,8.30
2023-03-25T06:07:48.476Z,8.20
2023-03-25T06:10:23.770Z,8.40
2023-03-25T06:12:54.465Z,7.60
2023-03-25T06:18:26.356Z,8.50
2023-03-25T06:21:20.033Z,7.40
2023-03-25T06:23:49.603Z,8.00
2023-03-25T06:26:18.421Z,7.40
2023-03-25T06:28:47.454Z,7.50
2023-03-25T06:31:48.163Z,7.90
2023-03-25T06:34:16.701Z,7.20
2023-03-25T06:36:44.874Z,7.10
2023-03-25T06:39:14.376Z,7.10
2023-03-25T06:41:48.645Z,7.00
2023-03-25T06:44:24.423Z,7.00
2023-03-25T06:47:15.195Z,6.30
2023-03-25T06:49:50.995Z,6.20
2023-03-25T06:52:19.591Z,6.60
2023-03-25T06:54:51.466Z,6.20
2023-03-25T06:57:19.992Z,6.20
2023-03-25T06:59:49.855Z,6.90
2023-03-25T07:02:18.157Z,7.20
2023-03-25T07:04:46.391Z,7.10
2023-03-25T07:07:16.205Z,8.20
2023-03-25T07:09:55.419Z,7.80
2023-03-25T07:12:24.062Z,8.70
2023-03-25T07:14:59.289Z,10.00
2023-03-25T07:17:27.616Z,7.60
2023-03-25T07:19:58.192Z,7.80
2023-03-25T07:22:26.986Z,7.60
2023-03-25T07:24:56.337Z,7.10
2023-03-25T07:27:29.186Z,7.50
2023-03-25T07:30:05.023Z,7.40
2023-03-25T07:32:37.149Z,7.40
2023-03-25T07:35:06.848Z,7.60
2023-03-25T07:37:38.987Z,8.10
2023-03-25T07:40:08.300Z,6.20
2023-03-25T07:42:38.665Z,7.50
2023-03-25T07:45:43.813Z,6.90
2023-03-25T07:48:17.077Z,6.10
2023-03-25T07:50:46.279Z,6.90
2023-03-25T07:53:20.165Z,6.60
2023-03-25T07:55:51.395Z,6.40
2023-03-25T07:58:20.030Z,7.20
2023-03-25T08:00:50.554Z,6.30
2023-03-25T08:03:18.853Z,7.40
2023-03-25T08:05:49.331Z,6.60
2023-03-25T08:08:18.162Z,7.50
2023-03-25T08:10:48.433Z,7.80
2023-03-25T08:13:20.142Z,7.40
2023-03-25T08:15:52.654Z,7.60
2023-03-25T08:18:21.586Z,6.70
2023-03-25T08:20:52.619Z,6.80
2023-03-25T08:23:22.855Z,7.00
2023-03-25T08:25:51.459Z,6.60
2023-03-25T08:28:23.804Z,7.10
2023-03-25T08:30:55.508Z,6.30
2023-03-25T08:33:27.735Z,6.10
2023-03-25T08:35:57.792Z,6.00
2023-03-25T08:38:34.577Z,6.40
2023-03-25T08:41:05.724Z,5.90
2023-03-25T08:43:34.220Z,5.90
2023-03-25T08:46:08.793Z,6.00
2023-03-25T08:48:38.061Z,6.10
2023-03-25T08:51:08.071Z,6.40
2023-03-25T08:53:38.557Z,6.20
2023-03-25T08:56:07.586Z,5.90
2023-03-25T08:58:38.174Z,6.30
2023-03-25T09:01:12.490Z,5.90
2023-03-25T09:04:06.126Z,5.90
2023-03-25T09:09:39.150Z,6.40
2023-03-25T09:12:12.147Z,6.70
2023-03-25T09:14:41.174Z,6.70
2023-03-25T09:17:11.104Z,6.20
2023-03-25T09:19:41.152Z,6.40
2023-03-25T09:22:12.996Z,7.30
2023-03-25T09:24:41.750Z,8.60
2023-03-25T09:27:11.198Z,6.60
2023-03-25T09:29:43.299Z,7.30
2023-03-25T09:32:18.895Z,8.60
2023-03-25T09:34:48.696Z,7.20
2023-03-25T09:37:17.594Z,7.40
2023-03-25T09:39:46.263Z,7.30
2023-03-25T09:42:36.985Z,7.40
2023-03-25T09:45:23.377Z,7.50
2023-03-25T09:47:58.604Z,8.20
2023-03-25T09:50:27.176Z,10.10
2023-03-25T10:04:57.356Z,9.20
2023-03-25T10:07:54.670Z,12.10
2023-03-25T10:10:46.378Z,8.40
2023-03-25T10:13:42.413Z,8.50
2023-03-25T10:16:24.125Z,8.30
2023-03-25T10:19:14.931Z,8.60
2023-03-25T10:22:08.601Z,8.50
2023-03-25T10:24:59.425Z,9.00
2023-03-25T10:27:41.038Z,8.70
2023-03-25T10:30:21.341Z,13.00
2023-03-25T10:32:58.412Z,11.70
2023-03-25T10:35:29.580Z,11.10
2023-03-25T10:38:13.682Z,9.50
2023-03-25T10:40:49.492Z,8.40
2023-03-25T10:43:27.114Z,11.60
2023-03-25T10:45:57.263Z,8.70
2023-03-25T10:48:30.667Z,8.60
2023-03-25T10:51:26.275Z,8.80
2023-03-25T10:53:54.382Z,9.00
2023-03-25T10:56:26.187Z,8.70
2023-03-25T10:58:56.070Z,8.30
2023-03-25T11:01:37.768Z,8.60
2023-03-25T11:04:18.891Z,8.20
2023-03-25T11:06:54.911Z,7.40
2023-03-25T11:09:36.261Z,8.30
2023-03-25T11:12:07.043Z,8.10
2023-03-25T11:14:39.489Z,8.30
2023-03-25T11:17:32.743Z,7.80
2023-03-25T11:20:02.172Z,7.90
2023-03-25T11:22:30.893Z,7.50
2023-03-25T11:25:07.121Z,7.60
2023-03-25T11:27:42.686Z,7.10
2023-03-25T11:30:18.000Z,7.70
2023-03-25T11:33:41.707Z,6.80
2023-03-25T11:36:26.524Z,7.30
2023-03-25T11:38:58.721Z,7.20
2023-03-25T11:41:33.146Z,7.60
2023-03-25T11:44:00.729Z,6.80
2023-03-25T11:46:27.696Z,7.30
2023-03-25T11:48:57.106Z,7.40
2023-03-25T11:51:27.409Z,7.20
2023-03-25T11:54:02.597Z,6.90
2023-03-25T11:56:44.424Z,7.00
2023-03-25T11:59:44.682Z,6.80
2023-03-25T12:02:38.351Z,7.50
2023-03-25T12:07:45.297Z,7.10
2023-03-25T12:10:19.739Z,7.30
2023-03-25T12:13:35.985Z,12.90
2023-03-25T12:16:08.239Z,8.30
2023-03-25T12:18:47.570Z,8.20
2023-03-25T12:21:40.867Z,7.20
2023-03-25T12:24:30.556Z,7.00
2023-03-25T12:27:10.759Z,7.10
2023-03-25T12:29:51.703Z,7.60
2023-03-25T12:32:37.509Z,7.10
2023-03-25T12:35:13.778Z,7.40
2023-03-25T12:37:44.001Z,11.70
2023-03-25T12:40:33.089Z,8.80
2023-03-25T12:43:09.887Z,62.40
2023-03-25T12:45:49.959Z,11.10
2023-03-25T12:49:04.204Z,7.20
2023-03-25T12:52:03.951Z,7.90
2023-03-25T12:55:01.812Z,7.20
2023-03-25T12:57:37.575Z,6.60
2023-03-25T13:03:35.720Z,5.30
2023-03-25T13:09:15.829Z,5.70
2023-03-25T13:11:48.885Z,5.80
2023-03-25T13:14:20.164Z,5.60
2023-03-25T13:16:48.686Z,5.80
2023-03-25T13:19:40.700Z,5.70
2023-03-25T13:22:23.441Z,5.70
2023-03-25T13:24:58.756Z,6.10
2023-03-25T13:27:25.836Z,6.30
2023-03-25T13:29:57.111Z,5.80
2023-03-25T13:32:33.266Z,6.20
2023-03-25T13:35:03.521Z,6.20
2023-03-25T13:37:45.842Z,6.90
2023-03-25T13:40:27.318Z,7.30
2023-03-25T13:43:02.466Z,7.70
2023-03-25T13:45:35.852Z,7.90
2023-03-25T13:48:11.851Z,10.00
2023-03-25T13:50:39.101Z,8.90
2023-03-25T13:53:35.208Z,8.90
2023-03-25T13:56:36.543Z,9.50
2023-03-25T13:59:15.856Z,6.90
2023-03-25T14:02:04.954Z,6.70
2023-03-25T14:05:06.170Z,5.70
2023-03-25T14:07:52.543Z,5.40
2023-03-25T14:10:24.178Z,6.40
2023-03-25T14:12:53.442Z,5.50
2023-03-25T14:15:21.391Z,4.80
2023-03-25T14:17:50.573Z,5.40
2023-03-25T14:20:29.427Z,5.00
2023-03-25T14:22:58.189Z,5.00
2023-03-25T14:25:39.215Z,5.30
2023-03-25T14:28:07.339Z,5.00
2023-03-25T14:30:35.566Z,5.10
2023-03-25T14:33:02.881Z,5.30
2023-03-25T14:35:33.705Z,4.80
2023-03-25T14:38:54.296Z,5.30
2023-03-25T14:42:00.106Z,5.50
2023-03-25T14:44:32.266Z,5.10
2023-03-25T14:49:22.460Z,5.80
2023-03-25T14:51:51.875Z,6.70
2023-03-25T14:54:22.912Z,6.20
2023-03-25T14:57:04.599Z,7.60
2023-03-25T14:59:38.187Z,11.40
2023-03-25T15:02:37.294Z,24.80
2023-03-25T15:05:57.529Z,10.50
2023-03-25T15:08:39.333Z,9.30
2023-03-25T15:11:16.128Z,9.40
2023-03-25T15:13:56.331Z,10.30
2023-03-25T15:16:32.694Z,11.70
2023-03-25T15:19:06.822Z,12.60
2023-03-25T15:21:58.597Z,12.70
2023-03-25T15:24:29.982Z,14.20
2023-03-25T15:27:02.332Z,13.90
2023-03-25T15:29:43.134Z,11.80
2023-03-25T15:32:17.245Z,11.50
2023-03-25T15:35:00.818Z,13.10
2023-03-25T15:37:56.948Z,14.60
2023-03-25T15:40:53.770Z,14.70
2023-03-25T15:44:00.541Z,14.30
2023-03-25T15:47:23.973Z,15.10
2023-03-25T15:50:18.034Z,14.50
2023-03-25T15:52:54.183Z,13.60
2023-03-25T15:55:53.538Z,11.70
2023-03-25T15:58:48.654Z,10.10
2023-03-25T16:01:43.003Z,9.20
2023-03-25T16:04:16.114Z,8.60
2023-03-25T16:06:47.289Z,8.70
2023-03-25T16:09:19.584Z,11.00
2023-03-25T16:12:23.203Z,13.70
2023-03-25T16:14:52.446Z,11.30
2023-03-25T16:17:28.429Z,12.60
2023-03-25T16:19:56.782Z,13.80
2023-03-25T16:22:32.115Z,17.70
2023-03-25T16:25:20.244Z,16.40
2023-03-25T16:27:53.093Z,18.40
2023-03-25T16:30:27.517Z,17.30
2023-03-25T16:33:08.547Z,18.90
2023-03-25T16:36:04.559Z,19.20
2023-03-25T16:38:33.568Z,18.50
2023-03-25T16:41:37.864Z,26.60
2023-03-25T16:44:07.463Z,21.10
2023-03-25T16:46:37.052Z,18.30
2023-03-25T16:49:05.539Z,18.70
2023-03-25T16:51:36.768Z,19.10
2023-03-25T16:54:31.223Z,25.50
2023-03-25T16:57:08.080Z,17.20
2023-03-25T16:59:39.575Z,16.20
2023-03-25T17:02:42.343Z,18.40
2023-03-25T17:05:26.493Z,14.00
2023-03-25T17:08:08.217Z,16.70
2023-03-25T17:11:06.346Z,16.80
2023-03-25T17:14:06.867Z,16.80
2023-03-25T17:16:36.814Z,14.60
2023-03-25T17:19:05.117Z,14.90
2023-03-25T17:22:04.316Z,13.80
2023-03-25T17:24:40.652Z,15.20
2023-03-25T17:27:36.672Z,18.00
2023-03-25T17:30:21.140Z,22.00
2023-03-25T17:32:51.233Z,23.80
2023-03-25T17:35:28.371Z,21.00
2023-03-25T17:38:01.353Z,22.10
2023-03-25T17:40:30.026Z,19.90
2023-03-25T17:43:00.970Z,19.10
2023-03-25T17:45:29.394Z,16.30
2023-03-25T17:48:23.676Z,15.40
2023-03-25T17:50:53.469Z,14.40
2023-03-25T17:53:22.043Z,14.20
2023-03-25T17:55:51.174Z,14.60
2023-03-25T17:58:21.031Z,14.00
2023-03-25T18:00:50.257Z,14.40
2023-03-25T18:03:30.100Z,14.40
2023-03-25T18:06:22.562Z,14.20
2023-03-25T18:08:51.837Z,14.80
2023-03-25T18:11:20.590Z,13.30
2023-03-25T18:13:57.491Z,13.90
2023-03-25T18:18:55.369Z,14.00
2023-03-25T18:21:26.227Z,15.10
2023-03-25T18:24:22.167Z,14.80
2023-03-25T18:26:51.146Z,14.20
2023-03-25T18:29:28.459Z,13.80
2023-03-25T18:31:56.927Z,13.90
2023-03-25T18:36:58.760Z,14.50
2023-03-25T18:39:27.944Z,13.80
2023-03-25T18:41:57.310Z,13.90
2023-03-25T18:44:27.875Z,14.40
2023-03-25T18:47:24.522Z,15.00
2023-03-25T18:49:53.877Z,15.00
2023-03-25T18:52:22.343Z,15.00
2023-03-25T18:54:50.924Z,16.00
2023-03-25T18:57:19.264Z,14.90
2023-03-25T18:59:48.856Z,15.20
2023-03-25T19:02:19.412Z,14.70
2023-03-25T19:05:00.284Z,14.40
2023-03-25T19:10:00.278Z,13.90
2023-03-25T19:12:29.138Z,15.00
2023-03-25T19:15:01.877Z,13.90
2023-03-25T19:17:30.676Z,13.20
2023-03-25T19:20:16.802Z,15.10
2023-03-25T19:22:47.727Z,14.30
2023-03-25T19:25:16.393Z,15.00
2023-03-25T19:30:21.504Z,13.30
2023-03-25T19:32:51.804Z,14.60
2023-03-25T19:35:20.948Z,13.90
2023-03-25T19:37:53.196Z,14.80
2023-03-25T19:40:26.494Z,14.10
2023-03-25T19:42:57.381Z,14.20
2023-03-25T19:45:26.378Z,14.20
2023-03-25T19:47:57.806Z,14.30
2023-03-25T19:50:28.253Z,15.40
2023-03-25T19:53:06.335Z,14.40
2023-03-25T19:55:35.078Z,14.40
2023-03-25T19:58:04.345Z,15.30
2023-03-25T20:03:06.523Z,14.30
2023-03-25T20:10:52.693Z,14.60
2023-03-25T20:13:32.488Z,15.50
2023-03-25T20:16:01.078Z,15.50
2023-03-25T20:18:29.601Z,14.90
2023-03-25T20:21:29.283Z,15.60
2023-03-25T20:23:58.256Z,14.80
2023-03-25T20:26:26.588Z,14.80
2023-03-25T20:28:57.423Z,15.80
2023-03-25T20:31:26.632Z,15.40
2023-03-25T20:33:55.511Z,15.30
2023-03-25T20:36:23.813Z,15.40
2023-03-25T20:38:57.530Z,16.40
2023-03-25T20:41:26.881Z,15.80
2023-03-25T20:43:55.437Z,15.80
2023-03-25T20:46:49.941Z,15.60
2023-03-25T20:49:42.008Z,15.00
2023-03-25T20:52:14.243Z,15.50
2023-03-25T20:54:42.912Z,17.00
2023-03-25T20:57:13.602Z,15.90
2023-03-25T20:59:42.821Z,16.90
2023-03-25T21:02:11.765Z,15.50
2023-03-25T21:04:40.168Z,16.20
2023-03-25T21:07:10.380Z,17.20
2023-03-25T21:09:38.852Z,17.30
2023-03-25T21:12:08.177Z,16.40
2023-03-25T21:14:37.962Z,17.20
2023-03-25T21:17:06.802Z,16.50
2023-03-25T21:19:35.632Z,16.40
2023-03-25T21:22:08.014Z,16.20
2023-03-25T21:24:36.760Z,16.50
2023-03-25T21:27:05.344Z,16.60
2023-03-25T21:29:33.545Z,16.70
2023-03-25T21:32:02.383Z,17.20
2023-03-25T21:34:32.009Z,17.20
2023-03-25T21:37:02.366Z,17.70
2023-03-25T21:39:31.746Z,18.30
2023-03-25T21:42:25.600Z,17.30
2023-03-25T21:44:53.873Z,17.60
2023-03-25T21:47:22.603Z,17.90
2023-03-25T21:49:51.198Z,17.80
2023-03-25T21:52:19.569Z,18.10
2023-03-25T21:54:50.016Z,18.30
2023-03-25T21:57:18.276Z,17.20
2023-03-25T21:59:54.938Z,18.20
2023-03-25T22:02:23.126Z,17.20
2023-03-25T22:04:51.430Z,17.30
2023-03-25T22:07:20.557Z,18.50
2023-03-25T22:09:49.410Z,17.80
2023-03-25T22:12:18.573Z,18.80
2023-03-25T22:14:46.828Z,17.50
2023-03-25T22:17:15.698Z,19.70
2023-03-25T22:19:44.078Z,17.50
2023-03-25T22:22:19.270Z,17.80
2023-03-25T22:24:49.157Z,17.60
2023-03-25T22:27:17.447Z,18.70
2023-03-25T22:29:50.686Z,17.80
2023-03-25T22:32:18.967Z,18.10
2023-03-25T22:34:47.206Z,18.70
2023-03-25T22:37:15.805Z,17.40
2023-03-25T22:39:44.410Z,18.00
2023-03-25T22:42:13.158Z,17.30
2023-03-25T22:44:44.816Z,16.80
2023-03-25T22:47:13.615Z,17.10
2023-03-25T22:49:42.065Z,17.90
2023-03-25T22:52:12.584Z,17.70
2023-03-25T22:54:41.112Z,16.80
2023-03-25T22:57:09.477Z,17.50
2023-03-25T22:59:39.424Z,16.00
2023-03-25T23:02:07.855Z,17.20
2023-03-25T23:04:36.532Z,16.60
2023-03-25T23:07:08.318Z,16.20
2023-03-25T23:09:44.258Z,16.00
2023-03-25T23:12:23.109Z,16.10
2023-03-25T23:14:54.486Z,16.00
2023-03-25T23:17:25.062Z,15.50
2023-03-25T23:19:53.540Z,15.30
2023-03-25T23:22:25.309Z,14.60
2023-03-25T23:24:54.661Z,16.00
2023-03-25T23:27:27.127Z,15.10
2023-03-25T23:29:56.855Z,15.40
2023-03-25T23:32:25.232Z,15.30
2023-03-25T23:34:58.502Z,14.80
2023-03-25T23:37:27.236Z,14.90
2023-03-25T23:39:55.502Z,15.60
2023-03-25T23:42:34.774Z,15.50
2023-03-25T23:45:05.006Z,14.90
2023-03-25T23:47:33.373Z,14.40
2023-03-25T23:50:03.198Z,13.40
2023-03-25T23:52:33.620Z,14.00
2023-03-25T23:55:02.551Z,13.20
2023-03-25T23:57:31.034Z,12.40
2023-03-25T23:59:59.763Z,12.90
